createdAt,value
2023-02-11T00:02:04.305Z,89.60
2023-02-11T00:04:10.575Z,89.70
2023-02-11T00:06:16.569Z,89.90
2023-02-11T00:08:23.977Z,90.10
2023-02-11T00:10:29.653Z,90.30
2023-02-11T00:12:34.755Z,90.50
2023-02-11T00:14:39.625Z,90.60
2023-02-11T00:16:44.720Z,90.50
2023-02-11T00:18:50.368Z,90.50
2023-02-11T00:20:55.271Z,90.30
2023-02-11T00:25:10.857Z,90.40
2023-02-11T00:27:16.087Z,90.70
2023-02-11T00:29:20.955Z,90.90
2023-02-11T00:31:27.235Z,91.00
2023-02-11T00:33:32.519Z,90.90
2023-02-11T00:35:40.370Z,90.80
2023-02-11T00:37:45.996Z,90.90
2023-02-11T00:39:51.244Z,91.00
2023-02-11T00:41:58.811Z,91.00
2023-02-11T00:44:04.318Z,91.00
2023-02-11T00:46:10.760Z,91.10
2023-02-11T00:48:15.725Z,91.00
2023-02-11T00:50:21.071Z,90.90
2023-02-11T00:52:27.665Z,90.90
2023-02-11T00:54:33.348Z,91.00
2023-02-11T00:56:38.416Z,91.00
2023-02-11T00:58:45.832Z,91.00
2023-02-11T01:00:50.886Z,91.00
2023-02-11T01:02:57.296Z,91.00
2023-02-11T01:05:03.701Z,90.90
2023-02-11T01:07:10.799Z,90.70
2023-02-11T01:09:15.683Z,90.80
2023-02-11T01:11:23.206Z,90.90
2023-02-11T01:13:29.484Z,90.50
2023-02-11T01:15:37.303Z,90.50
2023-02-11T01:17:42.713Z,90.40
2023-02-11T01:19:48.055Z,90.20
2023-02-11T01:21:52.907Z,90.20
2023-02-11T01:24:00.181Z,90.30
2023-02-11T01:26:05.757Z,90.40
2023-02-11T01:28:18.592Z,90.30
2023-02-11T01:30:23.698Z,90.30
2023-02-11T01:32:31.522Z,90.20
2023-02-11T01:34:36.775Z,90.20
2023-02-11T01:36:41.642Z,90.20
2023-02-11T01:38:47.289Z,90.30
2023-02-11T01:40:55.046Z,90.30
2023-02-11T01:43:00.643Z,90.20
2023-02-11T01:45:55.624Z,90.10
2023-02-11T01:48:03.360Z,90.20
2023-02-11T01:50:08.840Z,90.30
2023-02-11T01:52:19.352Z,90.70
2023-02-11T01:54:40.429Z,90.50
2023-02-11T01:57:05.139Z,90.40
2023-02-11T01:59:17.718Z,90.30
2023-02-11T02:01:29.388Z,90.40
2023-02-11T02:03:40.842Z,90.30
2023-02-11T02:05:54.319Z,90.40
2023-02-11T02:10:22.248Z,90.40
2023-02-11T02:14:34.265Z,90.40
2023-02-11T02:16:40.425Z,90.40
2023-02-11T02:18:59.015Z,90.40
2023-02-11T02:21:39.100Z,90.50
2023-02-11T02:24:30.637Z,90.50
2023-02-11T02:27:10.946Z,90.50
2023-02-11T02:29:58.278Z,90.50
2023-02-11T02:32:32.369Z,90.60
2023-02-11T02:34:47.097Z,90.50
2023-02-11T02:37:00.077Z,90.50
2023-02-11T02:39:14.786Z,90.60
2023-02-11T02:41:23.919Z,90.70
2023-02-11T02:43:31.994Z,90.60
2023-02-11T02:45:37.004Z,90.60
2023-02-11T02:47:44.412Z,90.60
2023-02-11T02:49:49.278Z,90.60
2023-02-11T02:52:21.985Z,90.60
2023-02-11T02:55:04.231Z,90.70
2023-02-11T02:57:25.670Z,90.70
2023-02-11T02:59:46.877Z,90.60
2023-02-11T03:02:06.779Z,90.60
2023-02-11T03:04:24.292Z,90.30
2023-02-11T03:06:34.602Z,90.50
2023-02-11T03:08:46.844Z,90.60
2023-02-11T03:10:55.915Z,90.60
2023-02-11T03:13:01.758Z,90.70
2023-02-11T03:15:10.148Z,90.80
2023-02-11T03:17:16.918Z,90.90
2023-02-11T03:19:29.275Z,91.00
2023-02-11T03:21:36.490Z,90.90
2023-02-11T03:23:47.466Z,90.90
2023-02-11T03:25:59.683Z,91.00
2023-02-11T03:28:10.856Z,91.10
2023-02-11T03:30:22.049Z,91.10
2023-02-11T03:32:31.713Z,91.40
2023-02-11T03:34:47.258Z,91.50
2023-02-11T03:36:57.230Z,91.20
2023-02-11T03:39:04.890Z,91.50
2023-02-11T03:41:14.774Z,91.60
2023-02-11T03:43:25.626Z,91.60
2023-02-11T03:45:32.960Z,91.60
2023-02-11T03:47:42.646Z,91.30
2023-02-11T03:49:52.529Z,91.40
2023-02-11T03:51:59.403Z,91.40
2023-02-11T03:54:08.439Z,91.50
2023-02-11T03:56:19.629Z,91.50
2023-02-11T03:58:24.575Z,91.20
2023-02-11T04:00:34.194Z,91.20
2023-02-11T04:02:41.838Z,91.30
2023-02-11T04:04:47.084Z,91.30
2023-02-11T04:06:54.542Z,91.30
2023-02-11T04:08:59.395Z,91.30
2023-02-11T04:11:04.967Z,91.50
2023-02-11T04:13:10.268Z,91.30
2023-02-11T04:15:15.131Z,91.40
2023-02-11T04:17:20.612Z,91.30
2023-02-11T04:19:25.455Z,91.40
2023-02-11T04:21:30.654Z,91.30
2023-02-11T04:23:38.183Z,91.30
2023-02-11T04:25:43.030Z,91.30
2023-02-11T04:27:48.218Z,91.30
2023-02-11T04:29:54.168Z,91.50
2023-02-11T04:31:59.114Z,91.30
2023-02-11T04:34:04.383Z,91.40
2023-02-11T04:36:10.743Z,91.20
2023-02-11T04:38:16.873Z,91.20
2023-02-11T04:40:24.437Z,91.20
2023-02-11T04:42:29.527Z,91.20
2023-02-11T04:44:34.704Z,91.20
2023-02-11T04:46:40.760Z,91.20
2023-02-11T04:48:45.609Z,91.10
2023-02-11T04:50:51.063Z,91.10
2023-02-11T04:52:56.325Z,91.30
2023-02-11T04:55:01.196Z,91.30
2023-02-11T04:57:09.083Z,91.20
2023-02-11T04:59:15.367Z,91.20
2023-02-11T05:01:20.353Z,91.30
2023-02-11T05:03:25.546Z,91.20
2023-02-11T05:05:30.898Z,91.30
2023-02-11T05:07:36.084Z,91.40
2023-02-11T05:09:40.960Z,91.40
2023-02-11T05:11:47.027Z,91.50
2023-02-11T05:13:55.018Z,91.60
2023-02-11T05:16:00.031Z,91.50
2023-02-11T05:18:05.332Z,91.70
2023-02-11T05:20:12.195Z,91.80
2023-02-11T05:22:17.076Z,91.80
2023-02-11T05:24:24.564Z,91.80
2023-02-11T05:26:29.489Z,91.80
2023-02-11T05:28:36.233Z,91.80
2023-02-11T05:30:43.724Z,91.90
2023-02-11T05:32:48.630Z,92.00
2023-02-11T05:34:53.450Z,92.00
2023-02-11T05:36:59.163Z,91.80
2023-02-11T05:39:04.055Z,91.80
2023-02-11T05:41:09.797Z,91.60
2023-02-11T05:43:15.204Z,91.60
2023-02-11T05:45:20.241Z,91.50
2023-02-11T05:47:27.879Z,91.40
2023-02-11T05:49:33.380Z,91.30
2023-02-11T05:51:38.236Z,91.20
2023-02-11T05:53:43.515Z,91.20
2023-02-11T05:55:49.649Z,91.10
2023-02-11T05:57:54.789Z,91.00
2023-02-11T05:59:59.620Z,91.10
2023-02-11T06:02:05.507Z,91.00
2023-02-11T06:04:12.949Z,90.90
2023-02-11T06:06:17.800Z,90.70
2023-02-11T06:08:23.175Z,90.70
2023-02-11T06:10:28.402Z,90.70
2023-02-11T06:12:33.230Z,90.70
2023-02-11T06:14:38.848Z,90.60
2023-02-11T06:16:43.673Z,90.70
2023-02-11T06:18:48.560Z,90.70
2023-02-11T06:20:56.014Z,90.50
2023-02-11T06:23:00.970Z,90.40
2023-02-11T06:25:05.921Z,90.50
2023-02-11T06:27:11.832Z,90.50
2023-02-11T06:29:16.680Z,90.60
2023-02-11T06:31:22.209Z,90.70
2023-02-11T06:33:27.452Z,90.60
2023-02-11T06:35:33.467Z,90.50
2023-02-11T06:37:40.929Z,90.50
2023-02-11T06:39:47.792Z,90.40
2023-02-11T06:41:52.640Z,90.50
2023-02-11T06:43:58.315Z,90.40
2023-02-11T06:46:03.490Z,90.40
2023-02-11T06:48:09.017Z,90.40
2023-02-11T06:50:17.143Z,90.30
2023-02-11T06:52:22.066Z,90.30
2023-02-11T06:54:29.626Z,90.30
2023-02-11T06:56:35.008Z,90.30
2023-02-11T06:58:40.638Z,90.10
2023-02-11T07:00:45.511Z,90.20
2023-02-11T07:02:50.459Z,90.30
2023-02-11T07:04:55.861Z,90.30
2023-02-11T07:07:00.712Z,90.30
2023-02-11T07:09:07.325Z,90.20
2023-02-11T07:11:18.082Z,90.20
2023-02-11T07:13:23.111Z,90.10
2023-02-11T07:15:28.082Z,90.10
2023-02-11T07:17:33.762Z,90.00
2023-02-11T07:19:38.609Z,90.00
2023-02-11T07:21:44.123Z,90.00
2023-02-11T07:23:49.820Z,89.90
2023-02-11T07:25:54.674Z,89.90
2023-02-11T07:28:02.149Z,89.80
2023-02-11T07:30:09.287Z,89.90
2023-02-11T07:32:14.256Z,89.90
2023-02-11T07:34:19.741Z,89.80
2023-02-11T07:36:26.117Z,89.80
2023-02-11T07:38:30.956Z,89.80
2023-02-11T07:40:35.806Z,89.50
2023-02-11T07:42:42.490Z,89.60
2023-02-11T07:44:50.649Z,89.50
2023-02-11T07:46:56.062Z,89.60
2023-02-11T07:49:01.773Z,89.70
2023-02-11T07:51:11.901Z,89.60
2023-02-11T07:53:17.143Z,89.40
2023-02-11T07:55:22.479Z,89.50
2023-02-11T07:57:27.337Z,89.40
2023-02-11T07:59:32.749Z,89.20
2023-02-11T08:01:40.302Z,89.20
2023-02-11T08:03:45.879Z,89.30
2023-02-11T08:05:50.970Z,89.20
2023-02-11T08:07:58.227Z,89.30
2023-02-11T08:10:03.058Z,89.40
2023-02-11T08:12:08.801Z,89.30
2023-02-11T08:14:13.911Z,89.30
2023-02-11T08:16:24.247Z,89.10
2023-02-11T08:18:32.217Z,89.20
2023-02-11T08:20:37.150Z,89.20
2023-02-11T08:22:41.990Z,89.10
2023-02-11T08:24:47.151Z,88.80
2023-02-11T08:26:52.943Z,89.20
2023-02-11T08:28:59.888Z,88.70
2023-02-11T08:31:09.030Z,88.80
2023-02-11T08:33:13.942Z,88.50
2023-02-11T08:35:21.654Z,88.20
2023-02-11T08:37:26.499Z,88.70
2023-02-11T08:39:31.681Z,88.60
2023-02-11T08:41:38.039Z,88.30
2023-02-11T08:43:43.300Z,88.60
2023-02-11T08:45:49.519Z,88.40
2023-02-11T08:47:54.563Z,88.50
2023-02-11T08:50:00.202Z,88.20
2023-02-11T08:52:08.296Z,87.70
2023-02-11T08:54:13.610Z,88.00
2023-02-11T08:56:20.547Z,87.90
2023-02-11T08:58:25.809Z,87.80
2023-02-11T09:00:30.732Z,87.70
2023-02-11T09:02:36.090Z,87.70
2023-02-11T09:04:41.596Z,87.70
2023-02-11T09:06:46.839Z,87.60
2023-02-11T09:08:56.711Z,87.50
2023-02-11T09:11:02.188Z,87.40
2023-02-11T09:13:07.104Z,87.50
2023-02-11T09:15:12.889Z,87.30
2023-02-11T09:17:18.331Z,87.00
2023-02-11T09:19:23.901Z,87.00
2023-02-11T09:21:29.435Z,87.00
2023-02-11T09:23:35.146Z,86.80
2023-02-11T09:25:45.040Z,87.10
2023-02-11T09:27:49.895Z,87.20
2023-02-11T09:29:55.201Z,87.20
2023-02-11T09:32:00.341Z,87.00
2023-02-11T09:34:08.838Z,87.40
2023-02-11T09:36:13.927Z,87.30
2023-02-11T09:38:18.830Z,87.50
2023-02-11T09:40:24.770Z,87.30
2023-02-11T09:42:54.327Z,87.10
2023-02-11T09:45:01.330Z,87.10
2023-02-11T09:47:13.278Z,87.10
2023-02-11T09:49:25.053Z,87.30
2023-02-11T09:51:40.745Z,87.00
2023-02-11T09:53:46.480Z,87.00
2023-02-11T09:55:56.221Z,86.80
2023-02-11T09:58:07.108Z,86.90
2023-02-11T10:00:24.265Z,86.70
2023-02-11T10:02:45.183Z,86.80
2023-02-11T10:05:23.548Z,86.90
2023-02-11T10:07:37.830Z,87.00
2023-02-11T10:10:04.164Z,86.90
2023-02-11T10:12:30.718Z,86.60
2023-02-11T10:15:18.158Z,86.60
2023-02-11T10:17:33.565Z,86.70
2023-02-11T10:20:03.913Z,86.70
2023-02-11T10:22:17.469Z,86.70
2023-02-11T10:24:23.048Z,86.90
2023-02-11T10:26:33.544Z,86.90
2023-02-11T10:28:39.770Z,87.00
2023-02-11T10:31:04.280Z,87.00
2023-02-11T10:33:18.631Z,86.90
2023-02-11T10:35:27.242Z,86.90
2023-02-11T10:37:32.830Z,86.60
2023-02-11T10:39:39.925Z,86.90
2023-02-11T10:41:48.740Z,87.10
2023-02-11T10:43:54.564Z,86.90
2023-02-11T10:46:05.147Z,87.10
2023-02-11T10:48:41.896Z,87.20
2023-02-11T10:50:47.264Z,87.30
2023-02-11T10:52:52.232Z,87.10
2023-02-11T10:55:04.890Z,87.10
2023-02-11T10:57:20.943Z,87.20
2023-02-11T10:59:31.997Z,86.90
2023-02-11T11:01:51.506Z,86.90
2023-02-11T11:03:59.954Z,86.60
2023-02-11T11:06:09.298Z,86.90
2023-02-11T11:08:15.187Z,86.70
2023-02-11T11:10:44.206Z,86.60
2023-02-11T11:12:51.679Z,86.60
2023-02-11T11:15:02.467Z,86.30
2023-02-11T11:17:21.049Z,86.00
2023-02-11T11:19:28.199Z,86.40
2023-02-11T11:21:38.902Z,86.20
2023-02-11T11:23:52.057Z,86.20
2023-02-11T11:26:08.544Z,86.10
2023-02-11T11:28:26.557Z,85.90
2023-02-11T11:30:41.728Z,85.50
2023-02-11T11:32:49.493Z,85.30
2023-02-11T11:34:58.206Z,85.30
2023-02-11T11:37:13.714Z,85.30
2023-02-11T11:39:24.953Z,85.10
2023-02-11T11:41:33.320Z,85.60
2023-02-11T11:43:38.182Z,85.80
2023-02-11T11:45:54.842Z,85.80
2023-02-11T11:48:07.411Z,85.90
2023-02-11T11:50:30.246Z,85.60
2023-02-11T11:52:49.362Z,85.80
2023-02-11T11:55:03.903Z,85.50
2023-02-11T11:57:17.988Z,86.00
2023-02-11T11:59:24.948Z,86.00
2023-02-11T12:01:51.330Z,86.10
2023-02-11T12:04:31.520Z,85.80
2023-02-11T12:06:46.046Z,85.90
2023-02-11T12:09:04.891Z,86.30
2023-02-11T12:11:20.619Z,86.10
2023-02-11T12:13:56.737Z,86.00
2023-02-11T12:16:13.988Z,86.10
2023-02-11T12:18:39.287Z,85.70
2023-02-11T12:21:06.118Z,85.90
2023-02-11T12:23:34.184Z,85.90
2023-02-11T12:25:48.440Z,85.60
2023-02-11T12:28:10.206Z,85.70
2023-02-11T12:30:48.669Z,85.80
2023-02-11T12:33:05.449Z,86.00
2023-02-11T12:35:28.239Z,86.00
2023-02-11T12:37:54.231Z,85.90
2023-02-11T12:40:16.266Z,86.00
2023-02-11T12:43:02.717Z,85.70
2023-02-11T12:45:22.752Z,85.50
2023-02-11T12:47:37.715Z,85.70
2023-02-11T12:50:12.198Z,85.90
2023-02-11T12:52:33.332Z,85.70
2023-02-11T12:54:48.920Z,86.10
2023-02-11T12:57:02.216Z,85.70
2023-02-11T12:59:14.408Z,85.80
2023-02-11T13:01:25.029Z,85.80
2023-02-11T13:03:40.154Z,85.70
2023-02-11T13:05:51.873Z,85.90
2023-02-11T13:08:04.529Z,85.90
2023-02-11T13:10:30.625Z,85.80
2023-02-11T13:12:48.918Z,85.90
2023-02-11T13:14:57.198Z,85.80
2023-02-11T13:17:02.809Z,86.00
2023-02-11T13:19:21.111Z,86.20
2023-02-11T13:21:40.413Z,86.00
2023-02-11T13:23:53.977Z,86.10
2023-02-11T13:26:10.674Z,86.20
2023-02-11T13:28:32.373Z,86.40
2023-02-11T13:30:47.127Z,86.70
2023-02-11T13:33:22.865Z,86.40
2023-02-11T13:35:33.680Z,86.40
2023-02-11T13:37:42.354Z,86.50
2023-02-11T13:40:03.080Z,86.40
2023-02-11T13:42:20.598Z,86.50
2023-02-11T13:44:30.191Z,86.50
2023-02-11T13:47:04.928Z,86.80
2023-02-11T13:49:24.835Z,86.70
2023-02-11T13:51:40.335Z,86.70
2023-02-11T13:53:52.270Z,86.60
2023-02-11T13:56:11.397Z,86.50
2023-02-11T13:58:40.022Z,86.70
2023-02-11T14:00:52.184Z,86.80
2023-02-11T14:03:42.227Z,86.70
2023-02-11T14:06:29.054Z,86.70
2023-02-11T14:08:47.116Z,87.00
2023-02-11T14:10:54.353Z,86.80
2023-02-11T14:13:20.426Z,86.90
2023-02-11T14:15:42.971Z,87.00
2023-02-11T14:17:47.953Z,87.20
2023-02-11T14:19:53.218Z,87.30
2023-02-11T14:22:05.748Z,87.20
2023-02-11T14:24:49.325Z,87.40
2023-02-11T14:27:01.270Z,87.40
2023-02-11T14:29:15.971Z,87.40
2023-02-11T14:31:27.217Z,87.50
2023-02-11T14:34:04.201Z,87.60
2023-02-11T14:36:25.693Z,87.80
2023-02-11T14:38:43.775Z,88.00
2023-02-11T14:40:57.639Z,87.90
2023-02-11T14:43:14.480Z,88.00
2023-02-11T14:45:25.777Z,88.20
2023-02-11T14:47:44.230Z,88.40
2023-02-11T14:49:51.067Z,88.50
2023-02-11T14:51:59.770Z,88.70
2023-02-11T14:54:22.781Z,88.80
2023-02-11T14:56:34.450Z,88.90
2023-02-11T14:58:40.096Z,89.00
2023-02-11T15:00:54.223Z,89.10
2023-02-11T15:03:01.785Z,89.20
2023-02-11T15:05:26.090Z,89.30
2023-02-11T15:07:31.053Z,89.30
2023-02-11T15:09:43.276Z,89.40
2023-02-11T15:11:52.000Z,89.40
2023-02-11T15:13:59.692Z,89.60
2023-02-11T15:16:11.125Z,89.50
2023-02-11T15:18:25.678Z,89.50
2023-02-11T15:20:34.217Z,89.60
2023-02-11T15:22:40.499Z,89.70
2023-02-11T15:24:46.054Z,89.70
2023-02-11T15:27:00.171Z,89.80
2023-02-11T15:29:05.077Z,90.00
2023-02-11T15:31:20.761Z,90.10
2023-02-11T15:33:30.186Z,90.20
2023-02-11T15:35:37.717Z,90.00
2023-02-11T15:37:43.453Z,90.10
2023-02-11T15:39:48.409Z,90.00
2023-02-11T15:41:53.294Z,90.10
2023-02-11T15:43:59.342Z,90.00
2023-02-11T15:46:05.630Z,90.10
2023-02-11T15:48:16.582Z,90.10
2023-02-11T15:50:29.674Z,90.10
2023-02-11T15:52:35.862Z,90.30
2023-02-11T15:54:41.227Z,90.20
2023-02-11T15:56:48.520Z,90.30
2023-02-11T15:58:57.414Z,90.30
2023-02-11T16:01:03.845Z,90.20
2023-02-11T16:03:09.437Z,90.40
2023-02-11T16:05:34.525Z,90.50
2023-02-11T16:07:46.800Z,90.50
2023-02-11T16:10:01.646Z,90.60
2023-02-11T16:12:27.037Z,90.80
2023-02-11T16:14:37.081Z,90.70
2023-02-11T16:16:42.832Z,90.90
2023-02-11T16:19:04.210Z,90.80
2023-02-11T16:21:19.350Z,90.70
2023-02-11T16:23:28.700Z,91.00
2023-02-11T16:25:34.538Z,91.20
2023-02-11T16:27:44.263Z,91.20
2023-02-11T16:29:51.919Z,91.30
2023-02-11T16:32:09.869Z,91.30
2023-02-11T16:34:18.803Z,91.40
2023-02-11T16:36:28.421Z,91.50
2023-02-11T16:38:34.893Z,91.50
2023-02-11T16:40:39.733Z,91.50
2023-02-11T16:42:45.164Z,91.40
2023-02-11T16:44:50.096Z,91.50
2023-02-11T16:46:55.736Z,91.30
2023-02-11T16:49:07.276Z,91.50
2023-02-11T16:51:14.767Z,91.50
2023-02-11T16:53:26.122Z,91.40
2023-02-11T16:55:32.632Z,91.60
2023-02-11T16:57:37.575Z,91.60
2023-02-11T16:59:42.411Z,91.60
2023-02-11T17:01:49.511Z,91.70
2023-02-11T17:03:54.376Z,91.70
2023-02-11T17:06:02.961Z,91.50
2023-02-11T17:08:08.781Z,91.70
2023-02-11T17:10:23.114Z,91.70
2023-02-11T17:12:28.063Z,92.00
2023-02-11T17:14:32.979Z,91.80
2023-02-11T17:16:37.844Z,91.90
2023-02-11T17:18:43.282Z,91.90
2023-02-11T17:20:49.663Z,92.00
2023-02-11T17:22:54.771Z,92.00
2023-02-11T17:24:59.794Z,92.00
2023-02-11T17:27:07.441Z,92.00
2023-02-11T17:29:17.984Z,92.10
2023-02-11T17:31:23.168Z,92.00
2023-02-11T17:33:28.732Z,92.00
2023-02-11T17:35:33.569Z,91.90
2023-02-11T17:37:38.504Z,92.10
2023-02-11T17:39:44.639Z,92.10
2023-02-11T17:41:49.513Z,92.10
2023-02-11T17:44:00.032Z,92.10
2023-02-11T17:46:08.097Z,92.20
2023-02-11T17:48:12.937Z,92.20
2023-02-11T17:50:18.394Z,92.10
2023-02-11T17:52:24.277Z,92.10
2023-02-11T17:54:29.253Z,92.10
2023-02-11T17:56:36.883Z,92.00
2023-02-11T17:58:41.776Z,92.10
2023-02-11T18:00:49.215Z,92.30
2023-02-11T18:02:56.492Z,92.10
2023-02-11T18:05:02.468Z,92.30
2023-02-11T18:07:07.360Z,92.40
2023-02-11T18:09:12.747Z,92.30
2023-02-11T18:11:18.653Z,92.20
2023-02-11T18:13:23.556Z,92.30
2023-02-11T18:15:28.837Z,92.20
2023-02-11T18:17:36.489Z,92.30
2023-02-11T18:19:41.318Z,92.40
2023-02-11T18:21:48.802Z,92.40
2023-02-11T18:23:53.798Z,92.40
2023-02-11T18:25:58.918Z,92.40
2023-02-11T18:28:03.965Z,92.50
2023-02-11T18:30:15.975Z,92.30
2023-02-11T18:32:20.832Z,92.40
2023-02-11T18:34:29.222Z,92.30
2023-02-11T18:36:34.144Z,92.40
2023-02-11T18:38:39.548Z,92.50
2023-02-11T18:40:47.419Z,92.40
2023-02-11T18:42:52.287Z,92.30
2023-02-11T18:44:57.238Z,92.40
2023-02-11T18:47:02.176Z,92.50
2023-02-11T18:49:07.098Z,92.40
2023-02-11T18:51:18.382Z,92.40
2023-02-11T18:53:24.631Z,92.50
2023-02-11T18:55:29.636Z,92.40
2023-02-11T18:57:34.824Z,92.40
2023-02-11T18:59:39.955Z,92.40
2023-02-11T19:01:47.441Z,92.40
2023-02-11T19:03:52.978Z,92.30
2023-02-11T19:05:57.855Z,92.40
2023-02-11T19:08:05.560Z,92.30
2023-02-11T19:10:13.115Z,92.40
2023-02-11T19:12:18.002Z,92.40
2023-02-11T19:14:26.385Z,92.10
2023-02-11T19:16:31.814Z,92.40
2023-02-11T19:18:38.650Z,92.50
2023-02-11T19:20:44.401Z,92.50
2023-02-11T19:22:49.608Z,92.50
2023-02-11T19:24:57.068Z,92.50
2023-02-11T19:27:05.337Z,92.70
2023-02-11T19:29:10.284Z,92.60
2023-02-11T19:31:15.657Z,92.50
2023-02-11T19:33:20.865Z,92.40
2023-02-11T19:35:26.404Z,92.50
2023-02-11T19:37:31.916Z,92.60
2023-02-11T19:39:36.819Z,92.80
2023-02-11T19:41:44.424Z,92.80
2023-02-11T19:43:52.775Z,93.00
2023-02-11T19:45:59.120Z,92.90
2023-02-11T19:48:04.075Z,92.90
2023-02-11T19:50:11.237Z,92.80
2023-02-11T19:52:16.521Z,93.00
2023-02-11T19:54:22.548Z,92.80
2023-02-11T19:56:28.583Z,92.90
2023-02-11T19:58:36.613Z,93.10
2023-02-11T20:00:42.355Z,93.20
2023-02-11T20:02:47.339Z,93.40
2023-02-11T20:04:53.347Z,93.40
2023-02-11T20:06:58.265Z,93.40
2023-02-11T20:09:06.260Z,93.40
2023-02-11T20:11:13.901Z,93.40
2023-02-11T20:13:18.749Z,93.30
2023-02-11T20:15:26.632Z,93.30
2023-02-11T20:17:31.591Z,93.20
2023-02-11T20:19:36.523Z,93.10
2023-02-11T20:21:41.411Z,93.30
2023-02-11T20:23:47.334Z,93.30
2023-02-11T20:25:52.582Z,93.40
2023-02-11T20:27:58.041Z,93.40
2023-02-11T20:30:04.782Z,93.30
2023-02-11T20:32:13.561Z,93.10
2023-02-11T20:34:19.897Z,93.20
2023-02-11T20:36:32.596Z,93.20
2023-02-11T20:38:37.604Z,93.40
2023-02-11T20:40:44.162Z,93.60
2023-02-11T20:42:49.461Z,93.60
2023-02-11T20:44:54.658Z,93.60
2023-02-11T20:46:59.524Z,93.40
2023-02-11T20:49:08.664Z,93.40
2023-02-11T20:51:17.478Z,93.30
2023-02-11T20:53:22.364Z,93.40
2023-02-11T20:55:27.211Z,93.40
2023-02-11T20:57:35.608Z,93.50
2023-02-11T20:59:40.680Z,93.50
2023-02-11T21:01:48.409Z,93.70
2023-02-11T21:03:57.974Z,93.60
2023-02-11T21:06:05.735Z,93.60
2023-02-11T21:08:10.594Z,93.70
2023-02-11T21:10:15.716Z,93.50
2023-02-11T21:12:21.313Z,93.60
2023-02-11T21:14:28.361Z,93.70
2023-02-11T21:16:34.591Z,93.60
2023-02-11T21:18:39.623Z,93.60
2023-02-11T21:20:46.755Z,93.90
2023-02-11T21:22:55.999Z,93.80
2023-02-11T21:25:01.083Z,93.80
2023-02-11T21:27:06.221Z,93.80
2023-02-11T21:29:11.960Z,93.90
2023-02-11T21:31:23.774Z,93.90
2023-02-11T21:33:30.545Z,94.00
2023-02-11T21:35:35.782Z,94.00
2023-02-11T21:37:40.806Z,93.90
2023-02-11T21:39:48.576Z,94.00
2023-02-11T21:41:55.941Z,94.00
2023-02-11T21:44:01.086Z,94.00
2023-02-11T21:46:11.649Z,94.00
2023-02-11T21:48:17.139Z,94.10
2023-02-11T21:50:22.223Z,94.00
2023-02-11T21:52:27.149Z,94.00
2023-02-11T21:54:32.671Z,94.10
2023-02-11T21:56:40.964Z,93.90
2023-02-11T21:58:46.579Z,93.90
2023-02-11T22:00:51.521Z,94.00
2023-02-11T22:05:03.005Z,94.10
2023-02-11T22:07:07.917Z,94.00
2023-02-11T22:09:13.561Z,94.10
2023-02-11T22:11:18.835Z,94.20
2023-02-11T22:13:26.533Z,94.20
2023-02-11T22:15:32.001Z,94.10
2023-02-11T22:17:37.556Z,94.10
2023-02-11T22:19:42.844Z,94.10
2023-02-11T22:21:47.727Z,94.20
2023-02-11T22:23:54.218Z,94.10
2023-02-11T22:26:00.162Z,94.20
2023-02-11T22:28:05.454Z,94.20
2023-02-11T22:30:14.915Z,94.20
2023-02-11T22:32:20.593Z,94.10
2023-02-11T22:34:25.491Z,94.20
2023-02-11T22:36:33.614Z,94.20
2023-02-11T22:38:38.711Z,94.20
2023-02-11T22:40:47.527Z,94.20
2023-02-11T22:42:53.572Z,94.10
2023-02-11T22:44:58.449Z,94.20
2023-02-11T22:47:06.565Z,94.10
2023-02-11T22:49:12.808Z,94.20
2023-02-11T22:51:20.284Z,94.10
2023-02-11T22:53:25.948Z,94.00
2023-02-11T22:55:31.844Z,93.90
2023-02-11T22:57:37.108Z,94.00
2023-02-11T22:59:41.987Z,94.00
2023-02-11T23:01:48.089Z,93.90
2023-02-11T23:03:56.123Z,94.00
2023-02-11T23:06:02.287Z,94.00
2023-02-11T23:08:07.643Z,94.10
2023-02-11T23:10:14.280Z,94.10
2023-02-11T23:12:19.170Z,94.00
2023-02-11T23:14:24.953Z,94.10
2023-02-11T23:16:33.419Z,94.20
2023-02-11T23:18:39.136Z,94.20
2023-02-11T23:20:47.513Z,94.20
2023-02-11T23:22:52.792Z,94.20
2023-02-11T23:24:57.754Z,94.30
2023-02-11T23:27:02.687Z,94.30
2023-02-11T23:29:08.238Z,94.20
2023-02-11T23:31:19.511Z,94.40
2023-02-11T23:33:26.034Z,94.30
2023-02-11T23:35:31.353Z,94.40
2023-02-11T23:37:38.902Z,94.50
2023-02-11T23:39:43.778Z,94.50
2023-02-11T23:41:49.150Z,94.50
2023-02-11T23:43:55.665Z,94.60
2023-02-11T23:46:01.217Z,94.70
2023-02-11T23:48:06.630Z,94.70
2023-02-11T23:50:13.509Z,94.70
2023-02-11T23:52:18.792Z,94.80
2023-02-11T23:54:26.436Z,94.80
2023-02-11T23:56:32.100Z,94.80
2023-02-11T23:58:37.278Z,94.90
